sensor_id;sensor_type;location;lat;lon;timestamp;P1;durP1;ratioP1;P2;durP2;ratioP2
50757;SDS011;36732;47.980;11.652;2023-05-09T00:00:07;11.07;;;7.95;;
50757;SDS011;36732;47.980;11.652;2023-05-09T00:02:35;8.57;;;7.68;;
50757;SDS011;36732;47.980;11.652;2023-05-09T00:05:03;8.90;;;8.07;;
50757;SDS011;36732;47.980;11.652;2023-05-09T00:07:30;9.98;;;8.38;;
50757;SDS011;36732;47.980;11.652;2023-05-09T00:09:56;10.30;;;8.88;;
50757;SDS011;36732;47.980;11.652;2023-05-09T00:12:22;9.80;;;8.57;;
50757;SDS011;36732;47.980;11.652;2023-05-09T00:14:48;9.70;;;7.72;;
50757;SDS011;36732;47.980;11.652;2023-05-09T00:17:15;8.60;;;7.60;;
50757;SDS011;36732;47.980;11.652;2023-05-09T00:19:42;10.05;;;8.32;;
50757;SDS011;36732;47.980;11.652;2023-05-09T00:22:09;9.70;;;8.52;;
50757;SDS011;36732;47.980;11.652;2023-05-09T00:24:37;11.65;;;8.60;;
50757;SDS011;36732;47.980;11.652;2023-05-09T00:27:02;9.75;;;8.02;;
50757;SDS011;36732;47.980;11.652;2023-05-09T00:29:29;11.48;;;8.85;;
50757;SDS011;36732;47.980;11.652;2023-05-09T00:31:54;9.60;;;8.60;;
50757;SDS011;36732;47.980;11.652;2023-05-09T00:34:20;9.45;;;8.50;;
50757;SDS011;36732;47.980;11.652;2023-05-09T00:36:46;9.18;;;8.27;;
50757;SDS011;36732;47.980;11.652;2023-05-09T00:39:11;10.25;;;9.13;;
50757;SDS011;36732;47.980;11.652;2023-05-09T00:41:37;9.85;;;8.52;;
50757;SDS011;36732;47.980;11.652;2023-05-09T00:44:03;9.70;;;8.70;;
50757;SDS011;36732;47.980;11.652;2023-05-09T00:46:29;9.43;;;8.52;;
50757;SDS011;36732;47.980;11.652;2023-05-09T00:48:55;10.23;;;8.32;;
50757;SDS011;36732;47.980;11.652;2023-05-09T00:51:22;9.55;;;8.52;;
50757;SDS011;36732;47.980;11.652;2023-05-09T00:53:48;11.45;;;9.38;;
50757;SDS011;36732;47.980;11.652;2023-05-09T00:56:14;12.45;;;8.48;;
50757;SDS011;36732;47.980;11.652;2023-05-09T00:58:40;9.80;;;8.75;;
50757;SDS011;36732;47.980;11.652;2023-05-09T01:01:06;9.88;;;8.77;;
50757;SDS011;36732;47.980;11.652;2023-05-09T01:03:35;9.77;;;8.77;;
50757;SDS011;36732;47.980;11.652;2023-05-09T01:06:12;11.75;;;9.55;;
50757;SDS011;36732;47.980;11.652;2023-05-09T01:08:58;9.32;;;8.15;;
50757;SDS011;36732;47.980;11.652;2023-05-09T01:11:35;9.05;;;7.97;;
50757;SDS011;36732;47.980;11.652;2023-05-09T01:22:38;7.82;;;6.95;;
50757;SDS011;36732;47.980;11.652;2023-05-09T01:25:15;7.43;;;6.65;;
50757;SDS011;36732;47.980;11.652;2023-05-09T01:28:12;8.23;;;7.28;;
50757;SDS011;36732;47.980;11.652;2023-05-09T01:31:01;7.53;;;6.72;;
50757;SDS011;36732;47.980;11.652;2023-05-09T01:33:28;8.13;;;7.32;;
50757;SDS011;36732;47.980;11.652;2023-05-09T01:35:58;8.68;;;7.35;;
50757;SDS011;36732;47.980;11.652;2023-05-09T01:38:29;7.50;;;6.45;;
50757;SDS011;36732;47.980;11.652;2023-05-09T01:40:57;7.22;;;6.53;;
50757;SDS011;36732;47.980;11.652;2023-05-09T01:43:24;8.40;;;7.20;;
50757;SDS011;36732;47.980;11.652;2023-05-09T01:45:52;8.73;;;7.13;;
50757;SDS011;36732;47.980;11.652;2023-05-09T01:48:20;7.38;;;6.43;;
50757;SDS011;36732;47.980;11.652;2023-05-09T01:50:50;8.25;;;6.72;;
50757;SDS011;36732;47.980;11.652;2023-05-09T01:53:17;6.80;;;6.15;;
50757;SDS011;36732;47.980;11.652;2023-05-09T01:55:46;7.82;;;6.25;;
50757;SDS011;36732;47.980;11.652;2023-05-09T01:58:12;6.47;;;5.78;;
50757;SDS011;36732;47.980;11.652;2023-05-09T02:00:40;6.20;;;5.60;;
50757;SDS011;36732;47.980;11.652;2023-05-09T02:03:07;6.80;;;6.05;;
50757;SDS011;36732;47.980;11.652;2023-05-09T02:05:33;7.55;;;6.13;;
50757;SDS011;36732;47.980;11.652;2023-05-09T02:08:00;7.00;;;6.20;;
50757;SDS011;36732;47.980;11.652;2023-05-09T02:10:26;9.18;;;5.93;;
50757;SDS011;36732;47.980;11.652;2023-05-09T02:12:53;7.20;;;6.50;;
50757;SDS011;36732;47.980;11.652;2023-05-09T02:15:20;8.50;;;6.28;;
50757;SDS011;36732;47.980;11.652;2023-05-09T02:17:46;7.15;;;6.13;;
50757;SDS011;36732;47.980;11.652;2023-05-09T02:20:12;7.18;;;6.47;;
50757;SDS011;36732;47.980;11.652;2023-05-09T02:22:38;8.05;;;7.22;;
50757;SDS011;36732;47.980;11.652;2023-05-09T02:25:06;8.32;;;6.85;;
50757;SDS011;36732;47.980;11.652;2023-05-09T02:27:34;6.90;;;6.20;;
50757;SDS011;36732;47.980;11.652;2023-05-09T02:30:03;7.90;;;7.10;;
50757;SDS011;36732;47.980;11.652;2023-05-09T02:32:34;10.43;;;6.45;;
50757;SDS011;36732;47.980;11.652;2023-05-09T02:35:03;8.88;;;6.43;;
50757;SDS011;36732;47.980;11.652;2023-05-09T02:37:30;9.65;;;6.18;;
50757;SDS011;36732;47.980;11.652;2023-05-09T02:39:57;8.80;;;6.55;;
50757;SDS011;36732;47.980;11.652;2023-05-09T02:42:24;7.13;;;6.45;;
50757;SDS011;36732;47.980;11.652;2023-05-09T02:44:51;6.38;;;5.78;;
50757;SDS011;36732;47.980;11.652;2023-05-09T02:47:17;6.63;;;5.97;;
50757;SDS011;36732;47.980;11.652;2023-05-09T02:49:43;8.35;;;7.10;;
50757;SDS011;36732;47.980;11.652;2023-05-09T02:52:09;7.55;;;6.32;;
50757;SDS011;36732;47.980;11.652;2023-05-09T02:54:35;7.03;;;6.32;;
50757;SDS011;36732;47.980;11.652;2023-05-09T02:57:02;7.75;;;6.97;;
50757;SDS011;36732;47.980;11.652;2023-05-09T02:59:28;7.07;;;5.68;;
50757;SDS011;36732;47.980;11.652;2023-05-09T03:01:54;7.70;;;6.78;;
50757;SDS011;36732;47.980;11.652;2023-05-09T03:04:20;7.78;;;6.40;;
50757;SDS011;36732;47.980;11.652;2023-05-09T03:06:46;5.93;;;5.35;;
50757;SDS011;36732;47.980;11.652;2023-05-09T03:09:12;7.35;;;6.00;;
50757;SDS011;36732;47.980;11.652;2023-05-09T03:11:38;8.32;;;7.53;;
50757;SDS011;36732;47.980;11.652;2023-05-09T03:14:04;7.50;;;6.75;;
50757;SDS011;36732;47.980;11.652;2023-05-09T03:16:30;6.82;;;6.13;;
50757;SDS011;36732;47.980;11.652;2023-05-09T03:18:56;7.10;;;6.03;;
50757;SDS011;36732;47.980;11.652;2023-05-09T03:21:21;7.38;;;6.05;;
50757;SDS011;36732;47.980;11.652;2023-05-09T03:23:47;7.95;;;6.72;;
50757;SDS011;36732;47.980;11.652;2023-05-09T03:26:13;6.97;;;6.28;;
50757;SDS011;36732;47.980;11.652;2023-05-09T03:28:39;9.82;;;7.78;;
50757;SDS011;36732;47.980;11.652;2023-05-09T03:31:05;8.88;;;7.93;;
50757;SDS011;36732;47.980;11.652;2023-05-09T03:33:30;10.68;;;8.02;;
50757;SDS011;36732;47.980;11.652;2023-05-09T03:35:56;12.07;;;8.63;;
50757;SDS011;36732;47.980;11.652;2023-05-09T03:38:22;11.55;;;8.00;;
50757;SDS011;36732;47.980;11.652;2023-05-09T03:40:48;9.25;;;8.25;;
50757;SDS011;36732;47.980;11.652;2023-05-09T03:43:15;10.40;;;9.35;;
50757;SDS011;36732;47.980;11.652;2023-05-09T03:45:40;9.05;;;8.05;;
50757;SDS011;36732;47.980;11.652;2023-05-09T03:48:07;9.57;;;7.85;;
50757;SDS011;36732;47.980;11.652;2023-05-09T03:50:34;10.23;;;8.50;;
50757;SDS011;36732;47.980;11.652;2023-05-09T03:53:00;10.52;;;9.45;;
50757;SDS011;36732;47.980;11.652;2023-05-09T03:55:26;10.57;;;9.48;;
50757;SDS011;36732;47.980;11.652;2023-05-09T03:57:52;10.15;;;9.15;;
50757;SDS011;36732;47.980;11.652;2023-05-09T04:00:19;8.27;;;7.47;;
50757;SDS011;36732;47.980;11.652;2023-05-09T04:02:45;9.10;;;8.20;;
50757;SDS011;36732;47.980;11.652;2023-05-09T04:05:14;9.68;;;7.90;;
50757;SDS011;36732;47.980;11.652;2023-05-09T04:07:40;8.50;;;6.55;;
50757;SDS011;36732;47.980;11.652;2023-05-09T04:10:06;8.57;;;7.75;;
50757;SDS011;36732;47.980;11.652;2023-05-09T04:12:33;9.38;;;6.97;;
50757;SDS011;36732;47.980;11.652;2023-05-09T04:14:59;9.60;;;7.18;;
50757;SDS011;36732;47.980;11.652;2023-05-09T04:17:24;7.95;;;7.15;;
50757;SDS011;36732;47.980;11.652;2023-05-09T04:19:50;8.98;;;6.82;;
50757;SDS011;36732;47.980;11.652;2023-05-09T04:22:16;8.80;;;7.90;;
50757;SDS011;36732;47.980;11.652;2023-05-09T04:24:42;7.80;;;7.00;;
50757;SDS011;36732;47.980;11.652;2023-05-09T04:27:08;8.95;;;8.05;;
50757;SDS011;36732;47.980;11.652;2023-05-09T04:29:33;9.23;;;8.27;;
50757;SDS011;36732;47.980;11.652;2023-05-09T04:32:00;8.82;;;7.93;;
50757;SDS011;36732;47.980;11.652;2023-05-09T04:34:26;9.68;;;7.22;;
50757;SDS011;36732;47.980;11.652;2023-05-09T04:36:53;9.07;;;7.43;;
50757;SDS011;36732;47.980;11.652;2023-05-09T04:39:19;8.18;;;7.38;;
50757;SDS011;36732;47.980;11.652;2023-05-09T04:41:45;7.05;;;6.38;;
50757;SDS011;36732;47.980;11.652;2023-05-09T04:44:12;7.20;;;6.50;;
50757;SDS011;36732;47.980;11.652;2023-05-09T04:46:38;9.20;;;6.70;;
50757;SDS011;36732;47.980;11.652;2023-05-09T04:49:04;7.40;;;6.70;;
50757;SDS011;36732;47.980;11.652;2023-05-09T04:51:30;7.53;;;6.72;;
50757;SDS011;36732;47.980;11.652;2023-05-09T04:53:55;7.35;;;6.65;;
50757;SDS011;36732;47.980;11.652;2023-05-09T04:56:21;8.05;;;7.25;;
50757;SDS011;36732;47.980;11.652;2023-05-09T04:58:47;9.02;;;7.53;;
50757;SDS011;36732;47.980;11.652;2023-05-09T05:01:13;9.15;;;7.75;;
50757;SDS011;36732;47.980;11.652;2023-05-09T05:03:40;9.68;;;7.45;;
50757;SDS011;36732;47.980;11.652;2023-05-09T05:06:06;8.35;;;7.50;;
50757;SDS011;36732;47.980;11.652;2023-05-09T05:08:32;8.25;;;7.45;;
50757;SDS011;36732;47.980;11.652;2023-05-09T05:10:58;9.05;;;8.13;;
50757;SDS011;36732;47.980;11.652;2023-05-09T05:13:23;8.88;;;7.40;;
50757;SDS011;36732;47.980;11.652;2023-05-09T05:15:49;8.07;;;7.28;;
50757;SDS011;36732;47.980;11.652;2023-05-09T05:18:15;7.97;;;7.18;;
50757;SDS011;36732;47.980;11.652;2023-05-09T05:20:41;7.88;;;7.13;;
50757;SDS011;36732;47.980;11.652;2023-05-09T05:23:07;7.22;;;6.53;;
50757;SDS011;36732;47.980;11.652;2023-05-09T05:25:33;7.47;;;6.78;;
50757;SDS011;36732;47.980;11.652;2023-05-09T05:27:59;7.68;;;6.88;;
50757;SDS011;36732;47.980;11.652;2023-05-09T05:30:25;7.07;;;6.38;;
50757;SDS011;36732;47.980;11.652;2023-05-09T05:32:50;6.85;;;6.25;;
50757;SDS011;36732;47.980;11.652;2023-05-09T05:35:16;7.82;;;6.53;;
50757;SDS011;36732;47.980;11.652;2023-05-09T05:37:43;7.53;;;6.00;;
50757;SDS011;36732;47.980;11.652;2023-05-09T05:40:09;8.65;;;6.88;;
50757;SDS011;36732;47.980;11.652;2023-05-09T05:42:35;9.52;;;5.35;;
50757;SDS011;36732;47.980;11.652;2023-05-09T05:45:01;6.43;;;5.82;;
50757;SDS011;36732;47.980;11.652;2023-05-09T05:47:30;6.28;;;5.68;;
50757;SDS011;36732;47.980;11.652;2023-05-09T05:50:00;6.95;;;6.25;;
50757;SDS011;36732;47.980;11.652;2023-05-09T05:52:27;6.88;;;6.20;;
50757;SDS011;36732;47.980;11.652;2023-05-09T05:54:53;6.25;;;5.65;;
50757;SDS011;36732;47.980;11.652;2023-05-09T05:57:19;6.45;;;5.82;;
50757;SDS011;36732;47.980;11.652;2023-05-09T05:59:45;6.78;;;5.97;;
50757;SDS011;36732;47.980;11.652;2023-05-09T06:02:12;6.97;;;6.38;;
50757;SDS011;36732;47.980;11.652;2023-05-09T06:04:39;7.13;;;6.43;;
50757;SDS011;36732;47.980;11.652;2023-05-09T06:07:05;6.82;;;6.18;;
50757;SDS011;36732;47.980;11.652;2023-05-09T06:09:31;7.30;;;6.50;;
50757;SDS011;36732;47.980;11.652;2023-05-09T06:11:57;7.45;;;6.40;;
50757;SDS011;36732;47.980;11.652;2023-05-09T06:14:23;7.18;;;6.43;;
50757;SDS011;36732;47.980;11.652;2023-05-09T06:16:48;8.57;;;6.68;;
50757;SDS011;36732;47.980;11.652;2023-05-09T06:19:14;6.57;;;5.97;;
50757;SDS011;36732;47.980;11.652;2023-05-09T06:21:40;7.35;;;6.65;;
50757;SDS011;36732;47.980;11.652;2023-05-09T06:24:06;8.60;;;6.57;;
50757;SDS011;36732;47.980;11.652;2023-05-09T06:26:32;8.85;;;6.95;;
50757;SDS011;36732;47.980;11.652;2023-05-09T06:28:57;7.80;;;7.00;;
50757;SDS011;36732;47.980;11.652;2023-05-09T06:31:23;8.43;;;7.25;;
50757;SDS011;36732;47.980;11.652;2023-05-09T06:33:49;8.48;;;6.70;;
50757;SDS011;36732;47.980;11.652;2023-05-09T06:36:15;8.30;;;6.93;;
50757;SDS011;36732;47.980;11.652;2023-05-09T06:38:40;9.20;;;7.63;;
50757;SDS011;36732;47.980;11.652;2023-05-09T06:41:06;8.10;;;7.30;;
50757;SDS011;36732;47.980;11.652;2023-05-09T06:43:32;8.75;;;7.28;;
50757;SDS011;36732;47.980;11.652;2023-05-09T06:45:57;9.43;;;7.78;;
50757;SDS011;36732;47.980;11.652;2023-05-09T06:48:23;8.75;;;7.53;;
50757;SDS011;36732;47.980;11.652;2023-05-09T06:50:49;8.50;;;6.97;;
50757;SDS011;36732;47.980;11.652;2023-05-09T06:53:15;7.65;;;6.85;;
50757;SDS011;36732;47.980;11.652;2023-05-09T06:55:41;10.98;;;8.07;;
50757;SDS011;36732;47.980;11.652;2023-05-09T06:58:06;8.32;;;7.45;;
50757;SDS011;36732;47.980;11.652;2023-05-09T07:00:32;8.98;;;8.07;;
50757;SDS011;36732;47.980;11.652;2023-05-09T07:02:58;8.57;;;7.22;;
50757;SDS011;36732;47.980;11.652;2023-05-09T07:05:24;9.05;;;7.53;;
50757;SDS011;36732;47.980;11.652;2023-05-09T07:07:49;7.80;;;6.88;;
50757;SDS011;36732;47.980;11.652;2023-05-09T07:10:15;7.53;;;6.80;;
50757;SDS011;36732;47.980;11.652;2023-05-09T07:12:41;8.63;;;7.22;;
50757;SDS011;36732;47.980;11.652;2023-05-09T07:15:07;8.30;;;7.50;;
50757;SDS011;36732;47.980;11.652;2023-05-09T07:17:33;7.80;;;7.00;;
50757;SDS011;36732;47.980;11.652;2023-05-09T07:19:59;7.55;;;6.85;;
50757;SDS011;36732;47.980;11.652;2023-05-09T07:22:27;6.88;;;6.28;;
50757;SDS011;36732;47.980;11.652;2023-05-09T07:24:53;7.22;;;6.53;;
50757;SDS011;36732;47.980;11.652;2023-05-09T07:27:19;7.80;;;6.72;;
50757;SDS011;36732;47.980;11.652;2023-05-09T07:29:44;6.93;;;6.22;;
50757;SDS011;36732;47.980;11.652;2023-05-09T07:32:10;7.15;;;6.45;;
50757;SDS011;36732;47.980;11.652;2023-05-09T07:34:36;6.22;;;5.63;;
50757;SDS011;36732;47.980;11.652;2023-05-09T07:37:01;6.57;;;5.57;;
50757;SDS011;36732;47.980;11.652;2023-05-09T07:39:27;6.25;;;5.65;;
50757;SDS011;36732;47.980;11.652;2023-05-09T07:41:53;5.32;;;4.82;;
50757;SDS011;36732;47.980;11.652;2023-05-09T07:44:19;6.63;;;4.95;;
50757;SDS011;36732;47.980;11.652;2023-05-09T07:46:44;5.82;;;4.85;;
50757;SDS011;36732;47.980;11.652;2023-05-09T07:49:10;6.75;;;5.60;;
50757;SDS011;36732;47.980;11.652;2023-05-09T07:51:36;6.90;;;5.18;;
50757;SDS011;36732;47.980;11.652;2023-05-09T07:54:02;6.18;;;4.97;;
50757;SDS011;36732;47.980;11.652;2023-05-09T07:56:27;5.15;;;4.38;;
50757;SDS011;36732;47.980;11.652;2023-05-09T07:58:53;5.93;;;5.32;;
50757;SDS011;36732;47.980;11.652;2023-05-09T08:01:19;5.38;;;4.85;;
50757;SDS011;36732;47.980;11.652;2023-05-09T08:03:45;6.72;;;5.22;;
50757;SDS011;36732;47.980;11.652;2023-05-09T08:06:10;5.95;;;4.97;;
50757;SDS011;36732;47.980;11.652;2023-05-09T08:08:36;8.07;;;5.38;;
50757;SDS011;36732;47.980;11.652;2023-05-09T08:11:03;5.72;;;4.78;;
50757;SDS011;36732;47.980;11.652;2023-05-09T08:13:29;5.53;;;4.85;;
50757;SDS011;36732;47.980;11.652;2023-05-09T08:15:55;5.60;;;5.10;;
50757;SDS011;36732;47.980;11.652;2023-05-09T08:18:21;6.30;;;4.65;;
50757;SDS011;36732;47.980;11.652;2023-05-09T08:20:47;7.88;;;5.68;;
50757;SDS011;36732;47.980;11.652;2023-05-09T08:23:13;6.57;;;5.03;;
50757;SDS011;36732;47.980;11.652;2023-05-09T08:25:39;6.70;;;4.82;;
50757;SDS011;36732;47.980;11.652;2023-05-09T08:28:04;5.95;;;5.35;;
50757;SDS011;36732;47.980;11.652;2023-05-09T08:30:30;6.50;;;5.20;;
50757;SDS011;36732;47.980;11.652;2023-05-09T08:32:56;5.25;;;4.75;;
50757;SDS011;36732;47.980;11.652;2023-05-09T08:35:22;5.20;;;4.70;;
50757;SDS011;36732;47.980;11.652;2023-05-09T08:37:47;5.07;;;4.55;;
50757;SDS011;36732;47.980;11.652;2023-05-09T08:40:13;5.63;;;5.10;;
50757;SDS011;36732;47.980;11.652;2023-05-09T08:42:39;4.65;;;4.22;;
50757;SDS011;36732;47.980;11.652;2023-05-09T08:45:10;5.00;;;4.50;;
50757;SDS011;36732;47.980;11.652;2023-05-09T08:47:40;5.10;;;4.60;;
50757;SDS011;36732;47.980;11.652;2023-05-09T08:50:07;5.70;;;5.20;;
50757;SDS011;36732;47.980;11.652;2023-05-09T08:52:35;5.45;;;4.47;;
50757;SDS011;36732;47.980;11.652;2023-05-09T08:55:01;7.68;;;4.85;;
50757;SDS011;36732;47.980;11.652;2023-05-09T08:57:30;5.10;;;4.32;;
50757;SDS011;36732;47.980;11.652;2023-05-09T08:59:59;5.53;;;4.82;;
50757;SDS011;36732;47.980;11.652;2023-05-09T09:02:25;4.90;;;4.50;;
50757;SDS011;36732;47.980;11.652;2023-05-09T09:04:50;4.55;;;4.05;;
50757;SDS011;36732;47.980;11.652;2023-05-09T09:07:18;4.50;;;4.00;;
50757;SDS011;36732;47.980;11.652;2023-05-09T09:09:45;4.22;;;3.80;;
50757;SDS011;36732;47.980;11.652;2023-05-09T09:12:13;4.20;;;3.80;;
50757;SDS011;36732;47.980;11.652;2023-05-09T09:14:41;6.25;;;4.03;;
50757;SDS011;36732;47.980;11.652;2023-05-09T09:17:14;4.45;;;4.00;;
50757;SDS011;36732;47.980;11.652;2023-05-09T09:19:44;5.53;;;4.13;;
50757;SDS011;36732;47.980;11.652;2023-05-09T09:22:15;3.88;;;3.53;;
50757;SDS011;36732;47.980;11.652;2023-05-09T09:24:44;4.65;;;4.20;;
50757;SDS011;36732;47.980;11.652;2023-05-09T09:27:10;4.25;;;3.67;;
50757;SDS011;36732;47.980;11.652;2023-05-09T09:29:36;4.25;;;3.72;;
50757;SDS011;36732;47.980;11.652;2023-05-09T09:32:03;3.55;;;3.25;;
50757;SDS011;36732;47.980;11.652;2023-05-09T09:34:30;5.15;;;4.15;;
50757;SDS011;36732;47.980;11.652;2023-05-09T09:36:56;4.70;;;4.00;;
50757;SDS011;36732;47.980;11.652;2023-05-09T09:39:22;5.18;;;3.25;;
50757;SDS011;36732;47.980;11.652;2023-05-09T09:41:48;4.43;;;3.55;;
50757;SDS011;36732;47.980;11.652;2023-05-09T09:44:18;4.28;;;3.60;;
50757;SDS011;36732;47.980;11.652;2023-05-09T09:46:54;4.20;;;3.80;;
50757;SDS011;36732;47.980;11.652;2023-05-09T09:49:24;5.38;;;4.88;;
50757;SDS011;36732;47.980;11.652;2023-05-09T09:51:51;4.60;;;4.20;;
50757;SDS011;36732;47.980;11.652;2023-05-09T09:54:22;4.53;;;4.13;;
50757;SDS011;36732;47.980;11.652;2023-05-09T09:56:51;4.97;;;4.47;;
50757;SDS011;36732;47.980;11.652;2023-05-09T09:59:19;5.50;;;4.32;;
50757;SDS011;36732;47.980;11.652;2023-05-09T10:04:29;4.65;;;4.10;;
50757;SDS011;36732;47.980;11.652;2023-05-09T10:06:59;4.53;;;4.05;;
50757;SDS011;36732;47.980;11.652;2023-05-09T10:09:30;4.45;;;4.05;;
50757;SDS011;36732;47.980;11.652;2023-05-09T10:12:01;5.15;;;4.65;;
50757;SDS011;36732;47.980;11.652;2023-05-09T10:14:30;4.32;;;3.78;;
50757;SDS011;36732;47.980;11.652;2023-05-09T10:16:59;5.20;;;4.70;;
50757;SDS011;36732;47.980;11.652;2023-05-09T10:19:27;4.75;;;4.35;;
50757;SDS011;36732;47.980;11.652;2023-05-09T10:24:33;5.85;;;5.25;;
50757;SDS011;36732;47.980;11.652;2023-05-09T10:27:11;5.13;;;3.90;;
50757;SDS011;36732;47.980;11.652;2023-05-09T10:29:39;6.30;;;4.93;;
50757;SDS011;36732;47.980;11.652;2023-05-09T10:32:41;5.25;;;4.47;;
50757;SDS011;36732;47.980;11.652;2023-05-09T10:35:18;5.75;;;4.88;;
50757;SDS011;36732;47.980;11.652;2023-05-09T10:37:54;5.13;;;4.63;;
50757;SDS011;36732;47.980;11.652;2023-05-09T10:40:23;4.43;;;4.03;;
50757;SDS011;36732;47.980;11.652;2023-05-09T10:42:49;5.03;;;4.38;;
50757;SDS011;36732;47.980;11.652;2023-05-09T10:45:15;4.97;;;4.03;;
50757;SDS011;36732;47.980;11.652;2023-05-09T10:47:42;4.70;;;3.67;;
50757;SDS011;36732;47.980;11.652;2023-05-09T10:50:09;4.43;;;4.03;;
50757;SDS011;36732;47.980;11.652;2023-05-09T10:55:56;5.10;;;3.65;;
50757;SDS011;36732;47.980;11.652;2023-05-09T10:58:24;3.97;;;3.67;;
50757;SDS011;36732;47.980;11.652;2023-05-09T11:00:56;5.45;;;4.50;;
50757;SDS011;36732;47.980;11.652;2023-05-09T11:03:27;5.25;;;4.70;;
50757;SDS011;36732;47.980;11.652;2023-05-09T11:09:29;5.05;;;4.07;;
50757;SDS011;36732;47.980;11.652;2023-05-09T11:12:11;4.50;;;3.78;;
50757;SDS011;36732;47.980;11.652;2023-05-09T11:14:43;6.03;;;4.13;;
50757;SDS011;36732;47.980;11.652;2023-05-09T11:17:14;5.32;;;4.43;;
50757;SDS011;36732;47.980;11.652;2023-05-09T11:20:00;5.57;;;4.78;;
50757;SDS011;36732;47.980;11.652;2023-05-09T11:22:41;5.53;;;4.60;;
50757;SDS011;36732;47.980;11.652;2023-05-09T11:27:50;4.55;;;4.07;;
50757;SDS011;36732;47.980;11.652;2023-05-09T11:30:17;4.97;;;4.30;;
50757;SDS011;36732;47.980;11.652;2023-05-09T11:32:51;5.20;;;4.70;;
50757;SDS011;36732;47.980;11.652;2023-05-09T11:35:20;4.85;;;4.35;;
50757;SDS011;36732;47.980;11.652;2023-05-09T11:40:26;4.43;;;3.85;;
50757;SDS011;36732;47.980;11.652;2023-05-09T11:42:54;4.55;;;4.10;;
50757;SDS011;36732;47.980;11.652;2023-05-09T11:45:22;5.88;;;5.25;;
50757;SDS011;36732;47.980;11.652;2023-05-09T11:47:50;5.15;;;4.50;;
50757;SDS011;36732;47.980;11.652;2023-05-09T11:50:18;4.55;;;4.13;;
50757;SDS011;36732;47.980;11.652;2023-05-09T11:52:45;5.43;;;4.40;;
50757;SDS011;36732;47.980;11.652;2023-05-09T11:55:12;6.45;;;5.05;;
50757;SDS011;36732;47.980;11.652;2023-05-09T11:57:40;5.00;;;4.32;;
50757;SDS011;36732;47.980;11.652;2023-05-09T12:00:14;6.53;;;5.07;;
50757;SDS011;36732;47.980;11.652;2023-05-09T12:02:50;5.72;;;4.70;;
50757;SDS011;36732;47.980;11.652;2023-05-09T12:05:17;5.65;;;4.45;;
50757;SDS011;36732;47.980;11.652;2023-05-09T12:07:45;5.03;;;4.25;;
50757;SDS011;36732;47.980;11.652;2023-05-09T12:10:12;4.43;;;4.03;;
50757;SDS011;36732;47.980;11.652;2023-05-09T12:15:21;5.38;;;4.55;;
50757;SDS011;36732;47.980;11.652;2023-05-09T12:17:59;8.32;;;4.93;;
50757;SDS011;36732;47.980;11.652;2023-05-09T12:20:40;6.43;;;5.40;;
50757;SDS011;36732;47.980;11.652;2023-05-09T12:23:15;4.88;;;4.35;;
50757;SDS011;36732;47.980;11.652;2023-05-09T12:25:54;5.22;;;4.70;;
50757;SDS011;36732;47.980;11.652;2023-05-09T12:28:24;5.13;;;4.32;;
50757;SDS011;36732;47.980;11.652;2023-05-09T12:30:51;7.10;;;4.57;;
50757;SDS011;36732;47.980;11.652;2023-05-09T12:33:18;4.80;;;4.20;;
50757;SDS011;36732;47.980;11.652;2023-05-09T12:35:44;4.65;;;3.60;;
50757;SDS011;36732;47.980;11.652;2023-05-09T12:38:13;5.50;;;4.07;;
50757;SDS011;36732;47.980;11.652;2023-05-09T12:43:14;4.88;;;4.05;;
50757;SDS011;36732;47.980;11.652;2023-05-09T12:45:41;5.53;;;4.57;;
50757;SDS011;36732;47.980;11.652;2023-05-09T12:48:07;5.00;;;4.00;;
50757;SDS011;36732;47.980;11.652;2023-05-09T12:50:35;5.38;;;4.45;;
50757;SDS011;36732;47.980;11.652;2023-05-09T12:53:01;5.40;;;3.90;;
50757;SDS011;36732;47.980;11.652;2023-05-09T12:55:37;3.83;;;3.20;;
50757;SDS011;36732;47.980;11.652;2023-05-09T12:58:05;6.95;;;3.88;;
50757;SDS011;36732;47.980;11.652;2023-05-09T13:00:43;3.47;;;2.85;;
50757;SDS011;36732;47.980;11.652;2023-05-09T13:03:21;5.00;;;3.22;;
50757;SDS011;36732;47.980;11.652;2023-05-09T13:05:59;3.92;;;3.53;;
50757;SDS011;36732;47.980;11.652;2023-05-09T13:08:26;4.10;;;3.67;;
50757;SDS011;36732;47.980;11.652;2023-05-09T13:10:52;4.63;;;3.72;;
50757;SDS011;36732;47.980;11.652;2023-05-09T13:13:18;6.13;;;3.83;;
50757;SDS011;36732;47.980;11.652;2023-05-09T13:15:45;4.10;;;3.70;;
50757;SDS011;36732;47.980;11.652;2023-05-09T13:18:11;5.20;;;4.20;;
50757;SDS011;36732;47.980;11.652;2023-05-09T13:20:37;5.93;;;3.75;;
50757;SDS011;36732;47.980;11.652;2023-05-09T13:23:03;4.70;;;3.90;;
50757;SDS011;36732;47.980;11.652;2023-05-09T13:25:29;4.15;;;3.45;;
50757;SDS011;36732;47.980;11.652;2023-05-09T13:27:55;4.57;;;3.42;;
50757;SDS011;36732;47.980;11.652;2023-05-09T13:30:20;7.60;;;4.13;;
50757;SDS011;36732;47.980;11.652;2023-05-09T13:32:46;5.32;;;4.00;;
50757;SDS011;36732;47.980;11.652;2023-05-09T13:35:12;5.68;;;4.00;;
50757;SDS011;36732;47.980;11.652;2023-05-09T13:37:39;5.72;;;4.57;;
50757;SDS011;36732;47.980;11.652;2023-05-09T13:40:04;4.40;;;3.70;;
50757;SDS011;36732;47.980;11.652;2023-05-09T13:42:32;5.40;;;4.22;;
50757;SDS011;36732;47.980;11.652;2023-05-09T13:44:58;5.65;;;4.05;;
50757;SDS011;36732;47.980;11.652;2023-05-09T13:47:24;5.70;;;4.10;;
50757;SDS011;36732;47.980;11.652;2023-05-09T13:49:50;4.75;;;4.25;;
50757;SDS011;36732;47.980;11.652;2023-05-09T13:52:17;5.45;;;3.53;;
50757;SDS011;36732;47.980;11.652;2023-05-09T13:54:43;4.10;;;3.63;;
50757;SDS011;36732;47.980;11.652;2023-05-09T13:57:09;4.93;;;4.18;;
50757;SDS011;36732;47.980;11.652;2023-05-09T13:59:35;4.97;;;4.45;;
50757;SDS011;36732;47.980;11.652;2023-05-09T14:02:01;4.78;;;4.00;;
50757;SDS011;36732;47.980;11.652;2023-05-09T14:04:27;4.95;;;4.45;;
50757;SDS011;36732;47.980;11.652;2023-05-09T14:06:57;7.85;;;5.50;;
50757;SDS011;36732;47.980;11.652;2023-05-09T14:09:24;5.25;;;4.35;;
50757;SDS011;36732;47.980;11.652;2023-05-09T14:11:50;6.25;;;4.88;;
50757;SDS011;36732;47.980;11.652;2023-05-09T14:14:17;5.88;;;4.60;;
50757;SDS011;36732;47.980;11.652;2023-05-09T14:16:44;5.13;;;4.47;;
50757;SDS011;36732;47.980;11.652;2023-05-09T14:19:11;7.93;;;4.32;;
50757;SDS011;36732;47.980;11.652;2023-05-09T14:21:39;5.13;;;4.45;;
50757;SDS011;36732;47.980;11.652;2023-05-09T14:24:09;8.90;;;5.28;;
50757;SDS011;36732;47.980;11.652;2023-05-09T14:26:36;6.03;;;4.88;;
50757;SDS011;36732;47.980;11.652;2023-05-09T14:29:02;5.40;;;4.65;;
50757;SDS011;36732;47.980;11.652;2023-05-09T14:31:29;8.07;;;5.30;;
50757;SDS011;36732;47.980;11.652;2023-05-09T14:33:55;5.45;;;4.90;;
50757;SDS011;36732;47.980;11.652;2023-05-09T14:36:22;6.07;;;4.80;;
50757;SDS011;36732;47.980;11.652;2023-05-09T14:38:48;7.55;;;4.50;;
50757;SDS011;36732;47.980;11.652;2023-05-09T14:41:14;4.75;;;4.05;;
50757;SDS011;36732;47.980;11.652;2023-05-09T14:43:39;4.85;;;4.30;;
50757;SDS011;36732;47.980;11.652;2023-05-09T14:46:05;4.90;;;4.40;;
50757;SDS011;36732;47.980;11.652;2023-05-09T14:48:31;5.05;;;4.40;;
50757;SDS011;36732;47.980;11.652;2023-05-09T14:50:57;4.80;;;4.25;;
50757;SDS011;36732;47.980;11.652;2023-05-09T14:53:24;4.95;;;4.45;;
50757;SDS011;36732;47.980;11.652;2023-05-09T14:55:51;4.65;;;4.03;;
50757;SDS011;36732;47.980;11.652;2023-05-09T14:58:17;12.77;;;5.03;;
50757;SDS011;36732;47.980;11.652;2023-05-09T15:00:43;5.50;;;4.90;;
50757;SDS011;36732;47.980;11.652;2023-05-09T15:03:09;8.48;;;5.00;;
50757;SDS011;36732;47.980;11.652;2023-05-09T15:05:36;5.35;;;4.85;;